sensor_id;sensor_type;location;lat;lon;timestamp;temperature;humidity
7666;DHT22;3875;46.562;4.898;2023-02-12T00:00:07;1.70;84.90
7666;DHT22;3875;46.562;4.898;2023-02-12T00:02:33;1.70;84.80
7666;DHT22;3875;46.562;4.898;2023-02-12T00:04:59;1.70;85.70
7666;DHT22;3875;46.562;4.898;2023-02-12T00:07:25;1.80;87.90
7666;DHT22;3875;46.562;4.898;2023-02-12T00:09:50;2.00;88.50
7666;DHT22;3875;46.562;4.898;2023-02-12T00:12:16;2.20;87.90
7666;DHT22;3875;46.562;4.898;2023-02-12T00:14:42;2.20;87.50
7666;DHT22;3875;46.562;4.898;2023-02-12T00:17:07;2.20;86.30
7666;DHT22;3875;46.562;4.898;2023-02-12T00:19:33;2.10;86.00
7666;DHT22;3875;46.562;4.898;2023-02-12T00:21:59;2.00;85.90
7666;DHT22;3875;46.562;4.898;2023-02-12T00:24:24;1.90;86.30
7666;DHT22;3875;46.562;4.898;2023-02-12T00:26:51;1.80;86.50
7666;DHT22;3875;46.562;4.898;2023-02-12T00:29:17;1.80;87.30
7666;DHT22;3875;46.562;4.898;2023-02-12T00:31:42;1.90;87.10
7666;DHT22;3875;46.562;4.898;2023-02-12T00:34:09;1.90;86.60
7666;DHT22;3875;46.562;4.898;2023-02-12T00:36:35;1.90;86.40
7666;DHT22;3875;46.562;4.898;2023-02-12T00:39:01;1.90;86.10
7666;DHT22;3875;46.562;4.898;2023-02-12T00:41:27;1.80;86.10
7666;DHT22;3875;46.562;4.898;2023-02-12T00:43:53;1.70;85.90
7666;DHT22;3875;46.562;4.898;2023-02-12T00:46:19;1.70;86.00
7666;DHT22;3875;46.562;4.898;2023-02-12T00:48:44;1.70;86.00
7666;DHT22;3875;46.562;4.898;2023-02-12T00:51:10;1.60;85.70
7666;DHT22;3875;46.562;4.898;2023-02-12T00:53:36;1.60;85.70
7666;DHT22;3875;46.562;4.898;2023-02-12T00:56:02;1.50;85.70
7666;DHT22;3875;46.562;4.898;2023-02-12T00:58:28;1.40;85.60
7666;DHT22;3875;46.562;4.898;2023-02-12T01:00:54;1.40;85.60
7666;DHT22;3875;46.562;4.898;2023-02-12T01:03:20;1.40;85.60
7666;DHT22;3875;46.562;4.898;2023-02-12T01:05:46;1.30;85.60
7666;DHT22;3875;46.562;4.898;2023-02-12T01:08:13;1.20;85.60
7666;DHT22;3875;46.562;4.898;2023-02-12T01:10:39;1.20;85.80
7666;DHT22;3875;46.562;4.898;2023-02-12T01:13:05;1.10;85.90
7666;DHT22;3875;46.562;4.898;2023-02-12T01:15:31;1.10;86.00
7666;DHT22;3875;46.562;4.898;2023-02-12T01:17:56;1.10;86.00
7666;DHT22;3875;46.562;4.898;2023-02-12T01:20:23;1.00;86.10
7666;DHT22;3875;46.562;4.898;2023-02-12T01:22:50;1.00;86.00
7666;DHT22;3875;46.562;4.898;2023-02-12T01:25:16;1.00;86.10
7666;DHT22;3875;46.562;4.898;2023-02-12T01:27:42;1.00;86.00
7666;DHT22;3875;46.562;4.898;2023-02-12T01:30:11;1.00;86.00
7666;DHT22;3875;46.562;4.898;2023-02-12T01:32:37;0.90;86.00
7666;DHT22;3875;46.562;4.898;2023-02-12T01:35:03;0.90;86.00
7666;DHT22;3875;46.562;4.898;2023-02-12T01:37:29;0.90;86.00
7666;DHT22;3875;46.562;4.898;2023-02-12T01:39:55;0.80;86.00
7666;DHT22;3875;46.562;4.898;2023-02-12T01:42:21;0.80;86.10
7666;DHT22;3875;46.562;4.898;2023-02-12T01:47:39;0.70;86.60
7666;DHT22;3875;46.562;4.898;2023-02-12T01:50:12;0.70;87.40
7666;DHT22;3875;46.562;4.898;2023-02-12T01:52:45;0.70;88.10
7666;DHT22;3875;46.562;4.898;2023-02-12T01:55:14;0.70;88.80
7666;DHT22;3875;46.562;4.898;2023-02-12T01:57:42;0.70;89.30
7666;DHT22;3875;46.562;4.898;2023-02-12T02:00:13;0.80;88.90
7666;DHT22;3875;46.562;4.898;2023-02-12T02:02:45;0.80;88.30
7666;DHT22;3875;46.562;4.898;2023-02-12T02:05:16;0.80;88.30
7666;DHT22;3875;46.562;4.898;2023-02-12T02:07:43;0.80;89.90
7666;DHT22;3875;46.562;4.898;2023-02-12T02:10:09;0.90;89.50
7666;DHT22;3875;46.562;4.898;2023-02-12T02:12:36;0.90;89.10
7666;DHT22;3875;46.562;4.898;2023-02-12T02:15:21;0.90;89.10
7666;DHT22;3875;46.562;4.898;2023-02-12T02:20:59;0.90;89.70
7666;DHT22;3875;46.562;4.898;2023-02-12T02:26:48;0.90;90.60
7666;DHT22;3875;46.562;4.898;2023-02-12T02:29:45;0.90;90.50
7666;DHT22;3875;46.562;4.898;2023-02-12T02:32:29;1.00;91.60
7666;DHT22;3875;46.562;4.898;2023-02-12T02:35:14;1.10;92.30
7666;DHT22;3875;46.562;4.898;2023-02-12T02:40:31;1.20;91.90
7666;DHT22;3875;46.562;4.898;2023-02-12T02:43:16;1.20;91.40
7666;DHT22;3875;46.562;4.898;2023-02-12T02:45:50;1.20;91.10
7666;DHT22;3875;46.562;4.898;2023-02-12T02:48:39;1.10;91.10
7666;DHT22;3875;46.562;4.898;2023-02-12T02:51:20;1.10;91.10
7666;DHT22;3875;46.562;4.898;2023-02-12T02:53:50;1.00;90.80
7666;DHT22;3875;46.562;4.898;2023-02-12T02:56:20;1.00;90.60
7666;DHT22;3875;46.562;4.898;2023-02-12T02:58:52;0.90;90.80
7666;DHT22;3875;46.562;4.898;2023-02-12T03:01:38;0.90;91.10
7666;DHT22;3875;46.562;4.898;2023-02-12T03:04:18;0.80;91.40
7666;DHT22;3875;46.562;4.898;2023-02-12T03:06:56;0.80;91.40
7666;DHT22;3875;46.562;4.898;2023-02-12T03:09:30;0.80;91.00
7666;DHT22;3875;46.562;4.898;2023-02-12T03:12:02;0.80;91.00
7666;DHT22;3875;46.562;4.898;2023-02-12T03:14:32;0.80;91.00
7666;DHT22;3875;46.562;4.898;2023-02-12T03:17:06;0.80;91.00
7666;DHT22;3875;46.562;4.898;2023-02-12T03:19:38;0.80;91.10
7666;DHT22;3875;46.562;4.898;2023-02-12T03:22:07;0.80;91.50
7666;DHT22;3875;46.562;4.898;2023-02-12T03:25:03;0.80;91.90
7666;DHT22;3875;46.562;4.898;2023-02-12T03:27:37;0.80;91.60
7666;DHT22;3875;46.562;4.898;2023-02-12T03:30:04;0.70;91.40
7666;DHT22;3875;46.562;4.898;2023-02-12T03:33:02;0.60;91.10
7666;DHT22;3875;46.562;4.898;2023-02-12T03:35:41;0.60;91.50
7666;DHT22;3875;46.562;4.898;2023-02-12T03:38:22;0.50;91.90
7666;DHT22;3875;46.562;4.898;2023-02-12T03:41:05;0.50;91.70
7666;DHT22;3875;46.562;4.898;2023-02-12T03:43:52;0.50;91.60
7666;DHT22;3875;46.562;4.898;2023-02-12T03:46:26;0.50;92.70
7666;DHT22;3875;46.562;4.898;2023-02-12T03:48:58;0.50;93.70
7666;DHT22;3875;46.562;4.898;2023-02-12T03:51:35;0.50;93.90
7666;DHT22;3875;46.562;4.898;2023-02-12T03:54:02;0.60;94.20
7666;DHT22;3875;46.562;4.898;2023-02-12T03:56:39;0.50;94.30
7666;DHT22;3875;46.562;4.898;2023-02-12T03:59:06;0.50;94.30
7666;DHT22;3875;46.562;4.898;2023-02-12T04:01:33;0.50;93.70
7666;DHT22;3875;46.562;4.898;2023-02-12T04:04:05;0.60;93.00
7666;DHT22;3875;46.562;4.898;2023-02-12T04:06:31;0.50;93.20
7666;DHT22;3875;46.562;4.898;2023-02-12T04:09:02;0.50;92.80
7666;DHT22;3875;46.562;4.898;2023-02-12T04:14:54;0.30;92.30
7666;DHT22;3875;46.562;4.898;2023-02-12T04:20:15;0.40;93.70
7666;DHT22;3875;46.562;4.898;2023-02-12T04:22:53;0.50;94.60
7666;DHT22;3875;46.562;4.898;2023-02-12T04:31:00;0.60;95.00
7666;DHT22;3875;46.562;4.898;2023-02-12T04:33:33;0.70;95.30
7666;DHT22;3875;46.562;4.898;2023-02-12T04:36:06;0.70;95.50
7666;DHT22;3875;46.562;4.898;2023-02-12T04:38:40;0.70;95.70
7666;DHT22;3875;46.562;4.898;2023-02-12T04:41:08;0.70;95.20
7666;DHT22;3875;46.562;4.898;2023-02-12T04:43:35;0.70;94.70
7666;DHT22;3875;46.562;4.898;2023-02-12T04:46:06;0.70;94.10
7666;DHT22;3875;46.562;4.898;2023-02-12T04:48:32;0.60;93.80
7666;DHT22;3875;46.562;4.898;2023-02-12T04:50:59;0.60;94.10
7666;DHT22;3875;46.562;4.898;2023-02-12T04:53:25;0.60;95.30
7666;DHT22;3875;46.562;4.898;2023-02-12T04:55:50;0.60;95.70
7666;DHT22;3875;46.562;4.898;2023-02-12T04:58:17;0.60;95.80
7666;DHT22;3875;46.562;4.898;2023-02-12T05:00:42;0.60;95.90
7666;DHT22;3875;46.562;4.898;2023-02-12T05:03:08;0.60;95.50
7666;DHT22;3875;46.562;4.898;2023-02-12T05:05:34;0.60;95.90
7666;DHT22;3875;46.562;4.898;2023-02-12T05:08:00;0.70;95.70
7666;DHT22;3875;46.562;4.898;2023-02-12T05:10:25;0.60;95.60
7666;DHT22;3875;46.562;4.898;2023-02-12T05:12:52;0.60;95.50
7666;DHT22;3875;46.562;4.898;2023-02-12T05:15:18;0.70;95.10
7666;DHT22;3875;46.562;4.898;2023-02-12T05:17:44;0.70;94.80
7666;DHT22;3875;46.562;4.898;2023-02-12T05:20:10;0.70;94.50
7666;DHT22;3875;46.562;4.898;2023-02-12T05:22:36;0.70;94.40
7666;DHT22;3875;46.562;4.898;2023-02-12T05:25:03;0.80;94.70
7666;DHT22;3875;46.562;4.898;2023-02-12T05:27:29;0.80;94.60
7666;DHT22;3875;46.562;4.898;2023-02-12T05:29:54;0.80;94.30
7666;DHT22;3875;46.562;4.898;2023-02-12T05:32:21;0.90;94.00
7666;DHT22;3875;46.562;4.898;2023-02-12T05:34:47;0.90;93.90
7666;DHT22;3875;46.562;4.898;2023-02-12T05:37:13;0.90;94.00
7666;DHT22;3875;46.562;4.898;2023-02-12T05:39:39;0.90;94.50
7666;DHT22;3875;46.562;4.898;2023-02-12T05:42:04;0.90;94.30
7666;DHT22;3875;46.562;4.898;2023-02-12T05:44:30;0.90;94.00
7666;DHT22;3875;46.562;4.898;2023-02-12T05:46:56;0.90;94.00
7666;DHT22;3875;46.562;4.898;2023-02-12T05:49:21;0.90;94.00
7666;DHT22;3875;46.562;4.898;2023-02-12T05:51:48;0.90;94.70
7666;DHT22;3875;46.562;4.898;2023-02-12T05:54:13;0.90;96.10
7666;DHT22;3875;46.562;4.898;2023-02-12T05:56:44;0.80;96.90
7666;DHT22;3875;46.562;4.898;2023-02-12T05:59:21;0.80;97.40
7666;DHT22;3875;46.562;4.898;2023-02-12T06:01:48;0.70;97.70
7666;DHT22;3875;46.562;4.898;2023-02-12T06:04:17;0.60;98.40
7666;DHT22;3875;46.562;4.898;2023-02-12T06:06:43;0.60;98.40
7666;DHT22;3875;46.562;4.898;2023-02-12T06:09:09;0.60;98.40
7666;DHT22;3875;46.562;4.898;2023-02-12T06:11:36;0.60;98.50
7666;DHT22;3875;46.562;4.898;2023-02-12T06:14:03;0.60;98.50
7666;DHT22;3875;46.562;4.898;2023-02-12T06:16:30;0.60;98.40
7666;DHT22;3875;46.562;4.898;2023-02-12T06:18:56;0.60;98.40
7666;DHT22;3875;46.562;4.898;2023-02-12T06:21:24;0.60;98.30
7666;DHT22;3875;46.562;4.898;2023-02-12T06:23:51;0.60;98.10
7666;DHT22;3875;46.562;4.898;2023-02-12T06:26:17;0.60;98.10
7666;DHT22;3875;46.562;4.898;2023-02-12T06:28:43;0.60;98.00
7666;DHT22;3875;46.562;4.898;2023-02-12T06:31:29;0.60;98.00
7666;DHT22;3875;46.562;4.898;2023-02-12T06:33:59;0.60;97.90
7666;DHT22;3875;46.562;4.898;2023-02-12T06:36:26;0.50;98.00
7666;DHT22;3875;46.562;4.898;2023-02-12T06:38:52;0.40;98.20
7666;DHT22;3875;46.562;4.898;2023-02-12T06:41:18;0.40;98.40
7666;DHT22;3875;46.562;4.898;2023-02-12T06:43:44;0.40;98.50
7666;DHT22;3875;46.562;4.898;2023-02-12T06:46:10;0.40;98.50
7666;DHT22;3875;46.562;4.898;2023-02-12T06:48:36;0.40;98.50
7666;DHT22;3875;46.562;4.898;2023-02-12T06:51:10;0.40;98.50
7666;DHT22;3875;46.562;4.898;2023-02-12T06:53:36;0.40;98.50
7666;DHT22;3875;46.562;4.898;2023-02-12T06:56:04;0.40;98.50
7666;DHT22;3875;46.562;4.898;2023-02-12T06:58:30;0.40;98.60
7666;DHT22;3875;46.562;4.898;2023-02-12T07:00:56;0.40;98.60
7666;DHT22;3875;46.562;4.898;2023-02-12T07:03:22;0.30;98.60
7666;DHT22;3875;46.562;4.898;2023-02-12T07:05:48;0.30;98.60
7666;DHT22;3875;46.562;4.898;2023-02-12T07:08:14;0.20;98.60
7666;DHT22;3875;46.562;4.898;2023-02-12T07:10:40;0.20;98.60
7666;DHT22;3875;46.562;4.898;2023-02-12T07:13:06;0.20;98.60
7666;DHT22;3875;46.562;4.898;2023-02-12T07:15:31;0.20;98.60
7666;DHT22;3875;46.562;4.898;2023-02-12T07:17:57;0.20;98.60
7666;DHT22;3875;46.562;4.898;2023-02-12T07:20:24;0.20;98.60
7666;DHT22;3875;46.562;4.898;2023-02-12T07:22:49;0.20;98.60
7666;DHT22;3875;46.562;4.898;2023-02-12T07:25:15;0.20;98.60
7666;DHT22;3875;46.562;4.898;2023-02-12T07:27:41;0.20;98.60
7666;DHT22;3875;46.562;4.898;2023-02-12T07:30:07;0.20;98.60
7666;DHT22;3875;46.562;4.898;2023-02-12T07:32:33;0.20;98.60
7666;DHT22;3875;46.562;4.898;2023-02-12T07:34:59;0.30;98.60
7666;DHT22;3875;46.562;4.898;2023-02-12T07:37:25;0.30;98.60
7666;DHT22;3875;46.562;4.898;2023-02-12T07:39:51;0.30;98.60
7666;DHT22;3875;46.562;4.898;2023-02-12T07:42:17;0.40;98.60
7666;DHT22;3875;46.562;4.898;2023-02-12T07:44:43;0.40;98.60
7666;DHT22;3875;46.562;4.898;2023-02-12T07:47:09;0.30;98.50
7666;DHT22;3875;46.562;4.898;2023-02-12T07:49:35;0.30;98.50
7666;DHT22;3875;46.562;4.898;2023-02-12T07:52:00;0.40;98.50
7666;DHT22;3875;46.562;4.898;2023-02-12T07:54:26;0.40;98.50
7666;DHT22;3875;46.562;4.898;2023-02-12T07:56:52;0.40;98.50
7666;DHT22;3875;46.562;4.898;2023-02-12T07:59:18;0.50;98.50
7666;DHT22;3875;46.562;4.898;2023-02-12T08:01:49;0.50;98.40
7666;DHT22;3875;46.562;4.898;2023-02-12T08:04:17;0.50;98.40
7666;DHT22;3875;46.562;4.898;2023-02-12T08:06:49;0.60;98.40
7666;DHT22;3875;46.562;4.898;2023-02-12T08:09:21;0.60;98.30
7666;DHT22;3875;46.562;4.898;2023-02-12T08:11:47;0.70;98.20
7666;DHT22;3875;46.562;4.898;2023-02-12T08:14:18;0.70;98.10
7666;DHT22;3875;46.562;4.898;2023-02-12T08:16:45;0.80;97.90
7666;DHT22;3875;46.562;4.898;2023-02-12T08:19:11;0.80;97.70
7666;DHT22;3875;46.562;4.898;2023-02-12T08:21:37;0.80;97.70
7666;DHT22;3875;46.562;4.898;2023-02-12T08:24:03;0.80;97.70
7666;DHT22;3875;46.562;4.898;2023-02-12T08:26:37;0.80;97.80
7666;DHT22;3875;46.562;4.898;2023-02-12T08:29:09;0.90;97.70
7666;DHT22;3875;46.562;4.898;2023-02-12T08:31:38;1.00;97.40
7666;DHT22;3875;46.562;4.898;2023-02-12T08:34:04;1.00;97.30
7666;DHT22;3875;46.562;4.898;2023-02-12T08:36:35;1.00;97.30
7666;DHT22;3875;46.562;4.898;2023-02-12T08:39:02;1.10;97.20
7666;DHT22;3875;46.562;4.898;2023-02-12T08:41:29;1.10;97.00
7666;DHT22;3875;46.562;4.898;2023-02-12T08:43:56;1.00;96.80
7666;DHT22;3875;46.562;4.898;2023-02-12T08:46:25;1.00;97.10
7666;DHT22;3875;46.562;4.898;2023-02-12T08:48:53;1.00;97.40
7666;DHT22;3875;46.562;4.898;2023-02-12T08:51:25;1.00;97.60
7666;DHT22;3875;46.562;4.898;2023-02-12T08:53:54;1.00;97.60
7666;DHT22;3875;46.562;4.898;2023-02-12T08:56:20;1.10;97.60
7666;DHT22;3875;46.562;4.898;2023-02-12T08:58:46;1.10;97.60
7666;DHT22;3875;46.562;4.898;2023-02-12T09:01:20;1.10;97.60
7666;DHT22;3875;46.562;4.898;2023-02-12T09:03:46;1.20;97.40
7666;DHT22;3875;46.562;4.898;2023-02-12T09:06:13;1.30;97.30
7666;DHT22;3875;46.562;4.898;2023-02-12T09:08:39;1.30;97.10
7666;DHT22;3875;46.562;4.898;2023-02-12T09:11:07;1.40;96.90
7666;DHT22;3875;46.562;4.898;2023-02-12T09:13:34;1.40;96.60
7666;DHT22;3875;46.562;4.898;2023-02-12T09:16:02;1.40;96.50
7666;DHT22;3875;46.562;4.898;2023-02-12T09:18:28;1.40;96.60
7666;DHT22;3875;46.562;4.898;2023-02-12T09:20:54;1.30;96.80
7666;DHT22;3875;46.562;4.898;2023-02-12T09:23:20;1.40;96.90
7666;DHT22;3875;46.562;4.898;2023-02-12T09:25:46;1.40;96.90
7666;DHT22;3875;46.562;4.898;2023-02-12T09:28:13;1.50;96.90
7666;DHT22;3875;46.562;4.898;2023-02-12T09:30:39;1.50;96.70
7666;DHT22;3875;46.562;4.898;2023-02-12T09:33:06;1.50;96.70
7666;DHT22;3875;46.562;4.898;2023-02-12T09:35:37;1.50;96.70
7666;DHT22;3875;46.562;4.898;2023-02-12T09:38:04;1.40;96.80
7666;DHT22;3875;46.562;4.898;2023-02-12T09:45:41;1.60;97.10
7666;DHT22;3875;46.562;4.898;2023-02-12T09:50:55;1.80;96.40
7666;DHT22;3875;46.562;4.898;2023-02-12T09:53:24;1.70;96.10
7666;DHT22;3875;46.562;4.898;2023-02-12T09:55:50;1.70;96.40
7666;DHT22;3875;46.562;4.898;2023-02-12T09:58:30;1.80;96.30
7666;DHT22;3875;46.562;4.898;2023-02-12T10:00:58;1.80;96.20
7666;DHT22;3875;46.562;4.898;2023-02-12T10:03:25;1.80;96.10
7666;DHT22;3875;46.562;4.898;2023-02-12T10:05:58;1.80;96.10
7666;DHT22;3875;46.562;4.898;2023-02-12T10:11:06;1.80;96.60
7666;DHT22;3875;46.562;4.898;2023-02-12T10:24:22;1.80;97.10
7666;DHT22;3875;46.562;4.898;2023-02-12T10:26:55;1.90;97.10
7666;DHT22;3875;46.562;4.898;2023-02-12T10:29:25;2.10;96.90
7666;DHT22;3875;46.562;4.898;2023-02-12T10:32:05;2.20;96.70
7666;DHT22;3875;46.562;4.898;2023-02-12T10:34:36;2.30;95.80
7666;DHT22;3875;46.562;4.898;2023-02-12T10:40:00;2.40;95.90
7666;DHT22;3875;46.562;4.898;2023-02-12T10:42:44;2.40;95.40
7666;DHT22;3875;46.562;4.898;2023-02-12T10:45:20;2.40;95.50
7666;DHT22;3875;46.562;4.898;2023-02-12T10:47:47;2.50;95.60
7666;DHT22;3875;46.562;4.898;2023-02-12T10:53:01;2.40;94.70
7666;DHT22;3875;46.562;4.898;2023-02-12T10:55:32;2.30;95.20
7666;DHT22;3875;46.562;4.898;2023-02-12T10:58:00;2.30;95.40
7666;DHT22;3875;46.562;4.898;2023-02-12T11:00:31;2.30;95.60
7666;DHT22;3875;46.562;4.898;2023-02-12T11:03:20;2.40;95.50
7666;DHT22;3875;46.562;4.898;2023-02-12T11:05:47;2.40;95.20
7666;DHT22;3875;46.562;4.898;2023-02-12T11:08:32;2.40;95.30
7666;DHT22;3875;46.562;4.898;2023-02-12T11:13:30;2.50;95.50
7666;DHT22;3875;46.562;4.898;2023-02-12T11:15:56;2.60;95.00
7666;DHT22;3875;46.562;4.898;2023-02-12T11:18:25;2.50;94.40
7666;DHT22;3875;46.562;4.898;2023-02-12T11:20:56;2.40;94.70
7666;DHT22;3875;46.562;4.898;2023-02-12T11:23:40;2.30;94.80
7666;DHT22;3875;46.562;4.898;2023-02-12T11:29:08;2.30;95.30
7666;DHT22;3875;46.562;4.898;2023-02-12T11:31:41;2.30;95.30
7666;DHT22;3875;46.562;4.898;2023-02-12T11:34:13;2.30;95.60
7666;DHT22;3875;46.562;4.898;2023-02-12T11:36:45;2.20;95.20
7666;DHT22;3875;46.562;4.898;2023-02-12T11:39:32;2.10;95.70
7666;DHT22;3875;46.562;4.898;2023-02-12T11:42:20;2.10;96.30
7666;DHT22;3875;46.562;4.898;2023-02-12T11:44:55;2.10;96.00
7666;DHT22;3875;46.562;4.898;2023-02-12T11:47:26;2.20;96.00
7666;DHT22;3875;46.562;4.898;2023-02-12T11:50:14;2.20;95.90
7666;DHT22;3875;46.562;4.898;2023-02-12T11:52:48;2.20;96.00
7666;DHT22;3875;46.562;4.898;2023-02-12T11:55:27;2.30;96.20
7666;DHT22;3875;46.562;4.898;2023-02-12T12:00:49;2.40;96.10
7666;DHT22;3875;46.562;4.898;2023-02-12T12:11:25;2.40;95.60
7666;DHT22;3875;46.562;4.898;2023-02-12T12:14:07;2.40;95.90
7666;DHT22;3875;46.562;4.898;2023-02-12T12:19:57;2.50;95.90
7666;DHT22;3875;46.562;4.898;2023-02-12T12:25:41;2.50;95.30
7666;DHT22;3875;46.562;4.898;2023-02-12T12:31:11;2.40;95.60
7666;DHT22;3875;46.562;4.898;2023-02-12T12:57:09;2.80;94.70
7666;DHT22;3875;46.562;4.898;2023-02-12T13:05:57;2.80;94.80
7666;DHT22;3875;46.562;4.898;2023-02-12T13:11:25;2.80;94.30
7666;DHT22;3875;46.562;4.898;2023-02-12T13:27:30;3.20;94.00
7666;DHT22;3875;46.562;4.898;2023-02-12T13:30:22;3.20;93.60
7666;DHT22;3875;46.562;4.898;2023-02-12T13:35:28;3.10;93.30
7666;DHT22;3875;46.562;4.898;2023-02-12T13:37:55;3.10;93.50
7666;DHT22;3875;46.562;4.898;2023-02-12T13:40:24;3.20;93.60
7666;DHT22;3875;46.562;4.898;2023-02-12T13:43:15;3.30;93.20
7666;DHT22;3875;46.562;4.898;2023-02-12T13:48:55;3.50;92.70
7666;DHT22;3875;46.562;4.898;2023-02-12T13:51:41;3.50;92.80
7666;DHT22;3875;46.562;4.898;2023-02-12T13:57:02;3.30;92.40
7666;DHT22;3875;46.562;4.898;2023-02-12T14:04:55;3.40;92.80
7666;DHT22;3875;46.562;4.898;2023-02-12T14:07:22;3.40;92.40
7666;DHT22;3875;46.562;4.898;2023-02-12T14:12:17;3.50;92.30
7666;DHT22;3875;46.562;4.898;2023-02-12T14:15:04;3.50;92.10
7666;DHT22;3875;46.562;4.898;2023-02-12T14:20:29;3.30;92.60
7666;DHT22;3875;46.562;4.898;2023-02-12T14:23:26;3.30;92.80
7666;DHT22;3875;46.562;4.898;2023-02-12T14:26:09;3.30;93.00
7666;DHT22;3875;46.562;4.898;2023-02-12T14:31:21;3.40;93.30
7666;DHT22;3875;46.562;4.898;2023-02-12T14:39:04;3.60;92.90
7666;DHT22;3875;46.562;4.898;2023-02-12T14:41:37;3.50;92.40
7666;DHT22;3875;46.562;4.898;2023-02-12T14:44:35;3.50;92.70
7666;DHT22;3875;46.562;4.898;2023-02-12T14:47:12;3.50;92.70
7666;DHT22;3875;46.562;4.898;2023-02-12T14:49:47;3.50;92.70
7666;DHT22;3875;46.562;4.898;2023-02-12T14:52:27;3.50;92.60
7666;DHT22;3875;46.562;4.898;2023-02-12T14:57:31;3.50;92.50
7666;DHT22;3875;46.562;4.898;2023-02-12T15:02:39;3.40;91.90
7666;DHT22;3875;46.562;4.898;2023-02-12T15:21:31;3.30;93.20
7666;DHT22;3875;46.562;4.898;2023-02-12T15:26:32;3.40;92.90
7666;DHT22;3875;46.562;4.898;2023-02-12T15:28:58;3.40;92.40
7666;DHT22;3875;46.562;4.898;2023-02-12T15:31:27;3.30;92.30
7666;DHT22;3875;46.562;4.898;2023-02-12T15:33:56;3.20;92.40
7666;DHT22;3875;46.562;4.898;2023-02-12T15:36:25;3.20;92.70
7666;DHT22;3875;46.562;4.898;2023-02-12T15:38:54;3.20;92.90
7666;DHT22;3875;46.562;4.898;2023-02-12T15:41:33;3.20;92.60
7666;DHT22;3875;46.562;4.898;2023-02-12T15:44:01;3.20;92.80
7666;DHT22;3875;46.562;4.898;2023-02-12T15:46:27;3.30;92.90
7666;DHT22;3875;46.562;4.898;2023-02-12T15:48:53;3.30;92.70
7666;DHT22;3875;46.562;4.898;2023-02-12T15:51:32;3.30;92.50
7666;DHT22;3875;46.562;4.898;2023-02-12T15:54:00;3.40;92.70
7666;DHT22;3875;46.562;4.898;2023-02-12T15:56:29;3.40;92.70
7666;DHT22;3875;46.562;4.898;2023-02-12T15:58:58;3.40;92.50
7666;DHT22;3875;46.562;4.898;2023-02-12T16:01:27;3.50;92.40
7666;DHT22;3875;46.562;4.898;2023-02-12T16:03:58;3.50;92.20
7666;DHT22;3875;46.562;4.898;2023-02-12T16:06:27;3.50;92.20
7666;DHT22;3875;46.562;4.898;2023-02-12T16:09:14;3.40;92.10
7666;DHT22;3875;46.562;4.898;2023-02-12T16:11:43;3.30;92.20
7666;DHT22;3875;46.562;4.898;2023-02-12T16:14:21;3.20;92.50
7666;DHT22;3875;46.562;4.898;2023-02-12T16:16:52;3.20;92.60
7666;DHT22;3875;46.562;4.898;2023-02-12T16:19:20;3.30;92.80
7666;DHT22;3875;46.562;4.898;2023-02-12T16:27:15;3.20;92.50
7666;DHT22;3875;46.562;4.898;2023-02-12T16:29:50;3.20;92.50
7666;DHT22;3875;46.562;4.898;2023-02-12T16:32:36;2.90;92.90
7666;DHT22;3875;46.562;4.898;2023-02-12T16:35:23;2.90;93.30
7666;DHT22;3875;46.562;4.898;2023-02-12T16:37:58;2.90;93.40
7666;DHT22;3875;46.562;4.898;2023-02-12T16:40:34;2.90;93.40
7666;DHT22;3875;46.562;4.898;2023-02-12T16:43:03;2.90;93.30
7666;DHT22;3875;46.562;4.898;2023-02-12T16:45:32;2.80;93.20
7666;DHT22;3875;46.562;4.898;2023-02-12T16:50:42;2.70;93.50
7666;DHT22;3875;46.562;4.898;2023-02-12T16:55:53;2.70;93.80
7666;DHT22;3875;46.562;4.898;2023-02-12T16:58:18;2.70;93.80
7666;DHT22;3875;46.562;4.898;2023-02-12T17:00:44;2.70;93.60
7666;DHT22;3875;46.562;4.898;2023-02-12T17:03:14;2.70;93.60
7666;DHT22;3875;46.562;4.898;2023-02-12T17:05:40;2.70;93.40
7666;DHT22;3875;46.562;4.898;2023-02-12T17:08:16;2.70;93.50
7666;DHT22;3875;46.562;4.898;2023-02-12T17:10:42;2.70;93.40
7666;DHT22;3875;46.562;4.898;2023-02-12T17:13:09;2.70;93.30
7666;DHT22;3875;46.562;4.898;2023-02-12T17:15:56;2.70;92.90
7666;DHT22;3875;46.562;4.898;2023-02-12T17:18:23;2.60;92.90
7666;DHT22;3875;46.562;4.898;2023-02-12T17:21:07;2.50;92.90
7666;DHT22;3875;46.562;4.898;2023-02-12T17:23:34;2.50;93.20
7666;DHT22;3875;46.562;4.898;2023-02-12T17:26:00;2.40;93.20
7666;DHT22;3875;46.562;4.898;2023-02-12T17:28:25;2.40;93.30
7666;DHT22;3875;46.562;4.898;2023-02-12T17:30:52;2.40;93.40
7666;DHT22;3875;46.562;4.898;2023-02-12T17:33:18;2.40;93.40
7666;DHT22;3875;46.562;4.898;2023-02-12T17:35:44;2.40;93.50
7666;DHT22;3875;46.562;4.898;2023-02-12T17:38:09;2.40;93.40
7666;DHT22;3875;46.562;4.898;2023-02-12T17:40:36;2.40;93.40
7666;DHT22;3875;46.562;4.898;2023-02-12T17:43:03;2.40;93.40
7666;DHT22;3875;46.562;4.898;2023-02-12T17:45:29;2.40;93.30
7666;DHT22;3875;46.562;4.898;2023-02-12T17:47:55;2.40;93.20
7666;DHT22;3875;46.562;4.898;2023-02-12T17:50:20;2.30;93.30
7666;DHT22;3875;46.562;4.898;2023-02-12T17:52:46;2.30;93.20
7666;DHT22;3875;46.562;4.898;2023-02-12T17:55:12;2.30;93.30
7666;DHT22;3875;46.562;4.898;2023-02-12T17:57:39;2.30;93.20
7666;DHT22;3875;46.562;4.898;2023-02-12T18:00:08;2.30;93.10
7666;DHT22;3875;46.562;4.898;2023-02-12T18:02:35;2.20;93.40
7666;DHT22;3875;46.562;4.898;2023-02-12T18:05:01;2.20;93.50
7666;DHT22;3875;46.562;4.898;2023-02-12T18:07:27;2.20;93.60
7666;DHT22;3875;46.562;4.898;2023-02-12T18:09:52;2.20;93.50
7666;DHT22;3875;46.562;4.898;2023-02-12T18:12:18;2.10;93.40
7666;DHT22;3875;46.562;4.898;2023-02-12T18:14:44;2.10;93.50
7666;DHT22;3875;46.562;4.898;2023-02-12T18:17:09;2.10;93.50
7666;DHT22;3875;46.562;4.898;2023-02-12T18:19:35;2.10;93.40
7666;DHT22;3875;46.562;4.898;2023-02-12T18:22:01;2.00;93.40
7666;DHT22;3875;46.562;4.898;2023-02-12T18:24:27;2.00;93.50
7666;DHT22;3875;46.562;4.898;2023-02-12T18:26:52;1.90;93.50
7666;DHT22;3875;46.562;4.898;2023-02-12T18:29:18;1.80;93.70
7666;DHT22;3875;46.562;4.898;2023-02-12T18:31:44;1.70;93.90
7666;DHT22;3875;46.562;4.898;2023-02-12T18:34:10;1.70;94.10
7666;DHT22;3875;46.562;4.898;2023-02-12T18:36:35;1.70;94.00
7666;DHT22;3875;46.562;4.898;2023-02-12T18:39:01;1.70;93.90
7666;DHT22;3875;46.562;4.898;2023-02-12T18:41:30;1.60;93.70
7666;DHT22;3875;46.562;4.898;2023-02-12T18:43:57;1.60;93.80
7666;DHT22;3875;46.562;4.898;2023-02-12T18:46:25;1.50;93.70
7666;DHT22;3875;46.562;4.898;2023-02-12T18:48:51;1.50;93.70
7666;DHT22;3875;46.562;4.898;2023-02-12T18:51:20;1.50;93.90
7666;DHT22;3875;46.562;4.898;2023-02-12T18:53:47;1.50;94.00
7666;DHT22;3875;46.562;4.898;2023-02-12T18:56:17;1.50;94.00
7666;DHT22;3875;46.562;4.898;2023-02-12T18:58:43;1.50;94.00
7666;DHT22;3875;46.562;4.898;2023-02-12T19:01:17;1.50;93.80
7666;DHT22;3875;46.562;4.898;2023-02-12T19:03:44;1.50;93.60
7666;DHT22;3875;46.562;4.898;2023-02-12T19:06:11;1.40;93.40
7666;DHT22;3875;46.562;4.898;2023-02-12T19:08:36;1.30;93.40
7666;DHT22;3875;46.562;4.898;2023-02-12T19:11:05;1.00;93.60
7666;DHT22;3875;46.562;4.898;2023-02-12T19:13:31;1.00;94.00
7666;DHT22;3875;46.562;4.898;2023-02-12T19:15:56;0.90;94.30
7666;DHT22;3875;46.562;4.898;2023-02-12T19:18:22;0.70;94.40
7666;DHT22;3875;46.562;4.898;2023-02-12T19:20:49;0.70;94.80
7666;DHT22;3875;46.562;4.898;2023-02-12T19:23:14;0.60;94.50
7666;DHT22;3875;46.562;4.898;2023-02-12T19:25:40;0.50;94.60
7666;DHT22;3875;46.562;4.898;2023-02-12T19:28:08;0.30;94.60
7666;DHT22;3875;46.562;4.898;2023-02-12T19:30:39;0.40;95.10
7666;DHT22;3875;46.562;4.898;2023-02-12T19:33:05;0.50;95.20
7666;DHT22;3875;46.562;4.898;2023-02-12T19:35:31;0.40;94.80
7666;DHT22;3875;46.562;4.898;2023-02-12T19:37:57;0.40;94.80